createdAt,value
2022-12-16T00:01:20.511Z,90.00
2022-12-16T00:03:49.793Z,90.10
2022-12-16T00:06:20.570Z,89.94
2022-12-16T00:08:47.907Z,89.89
2022-12-16T00:11:15.099Z,90.06
2022-12-16T00:13:42.276Z,89.97
2022-12-16T00:16:12.849Z,90.01
2022-12-16T00:18:40.528Z,89.92
2022-12-16T00:21:08.624Z,89.90
2022-12-16T00:23:36.509Z,89.98
2022-12-16T00:26:03.999Z,89.91
2022-12-16T00:28:31.208Z,89.99
2022-12-16T00:30:58.348Z,90.01
2022-12-16T00:33:27.290Z,89.80
2022-12-16T00:35:55.756Z,90.01
2022-12-16T00:38:25.529Z,90.27
2022-12-16T00:40:52.601Z,90.07
2022-12-16T00:43:20.245Z,90.19
2022-12-16T00:45:51.843Z,90.11
2022-12-16T00:48:23.718Z,89.97
2022-12-16T00:50:53.150Z,90.16
2022-12-16T00:53:24.026Z,90.02
2022-12-16T00:56:11.961Z,90.07
2022-12-16T00:58:38.875Z,90.26
2022-12-16T01:01:06.321Z,90.42
2022-12-16T01:03:34.494Z,90.21
2022-12-16T01:06:01.891Z,90.17
2022-12-16T01:08:28.802Z,90.15
2022-12-16T01:10:57.459Z,90.25
2022-12-16T01:13:27.025Z,90.36
2022-12-16T01:15:54.033Z,90.24
2022-12-16T01:18:21.591Z,90.15
2022-12-16T01:20:48.555Z,90.31
2022-12-16T01:23:15.476Z,90.38
2022-12-16T01:25:42.393Z,90.26
2022-12-16T01:28:09.519Z,90.34
2022-12-16T01:30:36.460Z,90.47
2022-12-16T01:33:03.479Z,90.40
2022-12-16T01:35:52.629Z,90.40
2022-12-16T01:38:17.281Z,90.38
2022-12-16T01:40:44.954Z,90.23
2022-12-16T01:43:13.957Z,90.17
2022-12-16T01:45:41.120Z,90.27
2022-12-16T01:48:30.522Z,90.45
2022-12-16T01:51:18.659Z,90.26
2022-12-16T01:53:46.973Z,90.25
2022-12-16T01:56:17.360Z,90.41
2022-12-16T01:58:45.294Z,90.22
2022-12-16T02:01:14.706Z,90.54
2022-12-16T02:03:42.972Z,90.21
2022-12-16T02:06:10.252Z,90.25
2022-12-16T02:08:37.380Z,90.42
2022-12-16T02:11:41.219Z,90.43
2022-12-16T02:14:54.344Z,89.87
2022-12-16T02:17:47.169Z,90.24
2022-12-16T02:20:41.855Z,90.14
2022-12-16T02:23:38.425Z,90.49
2022-12-16T02:26:31.273Z,90.15
2022-12-16T02:29:35.215Z,90.19
2022-12-16T02:32:30.205Z,90.32
2022-12-16T02:35:22.578Z,90.24
2022-12-16T02:38:22.680Z,90.31
2022-12-16T02:41:01.116Z,90.36
2022-12-16T02:43:43.832Z,90.27
2022-12-16T02:46:11.181Z,90.23
2022-12-16T02:48:38.112Z,90.22
2022-12-16T02:51:05.088Z,90.10
2022-12-16T02:53:36.841Z,90.28
2022-12-16T02:56:38.614Z,90.01
2022-12-16T02:59:24.828Z,90.14
2022-12-16T03:02:09.485Z,90.17
2022-12-16T03:04:49.489Z,90.13
2022-12-16T03:07:19.937Z,90.07
2022-12-16T03:09:49.141Z,90.07
2022-12-16T03:12:19.358Z,90.04
2022-12-16T03:14:52.675Z,89.94
2022-12-16T03:17:23.378Z,89.90
2022-12-16T03:20:02.967Z,89.93
2022-12-16T03:22:35.340Z,89.78
2022-12-16T03:25:02.720Z,89.69
2022-12-16T03:27:34.002Z,89.73
2022-12-16T03:30:19.651Z,89.72
2022-12-16T03:33:11.485Z,89.64
2022-12-16T03:35:50.624Z,89.65
2022-12-16T03:38:21.647Z,89.66
2022-12-16T03:40:50.037Z,89.47
2022-12-16T03:43:17.960Z,89.44
2022-12-16T03:45:46.362Z,89.35
2022-12-16T03:48:14.286Z,89.38
2022-12-16T03:50:41.353Z,89.34
2022-12-16T03:53:08.327Z,89.37
2022-12-16T03:55:35.799Z,89.32
2022-12-16T03:58:02.743Z,89.29
2022-12-16T04:00:29.917Z,89.19
2022-12-16T04:02:57.015Z,89.17
2022-12-16T04:05:24.161Z,89.09
2022-12-16T04:07:51.158Z,89.22
2022-12-16T04:10:38.165Z,89.01
2022-12-16T04:13:23.449Z,89.14
2022-12-16T04:16:09.177Z,88.84
2022-12-16T04:18:56.828Z,89.08
2022-12-16T04:21:42.677Z,89.04
2022-12-16T04:24:20.397Z,88.98
2022-12-16T04:27:13.403Z,88.91
2022-12-16T04:30:01.664Z,88.78
2022-12-16T04:32:49.367Z,88.99
2022-12-16T04:35:34.854Z,88.80
2022-12-16T04:38:20.608Z,88.73
2022-12-16T04:41:05.766Z,88.66
2022-12-16T04:43:51.040Z,88.59
2022-12-16T04:46:36.992Z,88.65
2022-12-16T04:49:22.271Z,88.61
2022-12-16T04:52:07.507Z,88.64
2022-12-16T04:54:52.654Z,88.61
2022-12-16T04:57:38.017Z,88.53
2022-12-16T05:00:25.162Z,88.54
2022-12-16T05:03:10.808Z,88.40
2022-12-16T05:05:56.173Z,88.31
2022-12-16T05:08:41.370Z,88.40
2022-12-16T05:11:27.197Z,88.31
2022-12-16T05:14:12.365Z,88.33
2022-12-16T05:16:57.781Z,88.23
2022-12-16T05:19:43.159Z,88.34
2022-12-16T05:22:28.985Z,88.35
2022-12-16T05:25:14.358Z,88.18
2022-12-16T05:27:59.699Z,88.15
2022-12-16T05:30:45.512Z,88.08
2022-12-16T05:33:31.328Z,88.12
2022-12-16T05:36:16.783Z,88.01
2022-12-16T05:39:01.983Z,88.03
2022-12-16T05:41:47.155Z,87.92
2022-12-16T05:44:32.474Z,87.95
2022-12-16T05:47:17.893Z,87.88
2022-12-16T05:50:03.278Z,87.94
2022-12-16T05:52:49.104Z,87.84
2022-12-16T05:55:35.105Z,87.61
2022-12-16T05:58:20.389Z,87.70
2022-12-16T06:01:06.857Z,87.51
2022-12-16T06:03:53.207Z,87.65
2022-12-16T06:06:38.650Z,87.68
2022-12-16T06:09:24.395Z,87.69
2022-12-16T06:12:10.263Z,87.69
2022-12-16T06:14:55.548Z,87.64
2022-12-16T06:17:40.691Z,87.59
2022-12-16T06:20:26.835Z,87.55
2022-12-16T06:23:13.409Z,87.50
2022-12-16T06:25:59.572Z,87.56
2022-12-16T06:28:46.155Z,87.50
2022-12-16T06:31:32.084Z,87.42
2022-12-16T06:34:17.385Z,87.46
2022-12-16T06:37:03.217Z,87.58
2022-12-16T06:39:52.918Z,87.15
2022-12-16T06:42:38.833Z,87.41
2022-12-16T06:45:27.913Z,87.43
2022-12-16T06:48:16.702Z,87.47
2022-12-16T06:51:01.919Z,87.30
2022-12-16T06:53:47.311Z,87.48
2022-12-16T06:56:32.941Z,87.32
2022-12-16T06:59:18.196Z,87.40
2022-12-16T07:02:04.006Z,87.38
2022-12-16T07:04:49.382Z,87.39
2022-12-16T07:07:34.671Z,87.34
2022-12-16T07:10:20.376Z,87.24
2022-12-16T07:13:05.768Z,87.53
2022-12-16T07:15:51.100Z,87.32
2022-12-16T07:18:36.259Z,87.28
2022-12-16T07:21:21.550Z,87.28
2022-12-16T07:24:06.986Z,87.30
2022-12-16T07:26:52.677Z,87.25
2022-12-16T07:29:38.361Z,87.24
2022-12-16T07:32:24.346Z,87.25
2022-12-16T07:35:09.616Z,87.50
2022-12-16T07:38:05.430Z,87.23
2022-12-16T07:40:50.748Z,87.31
2022-12-16T07:43:36.578Z,87.14
2022-12-16T07:46:22.251Z,87.20
2022-12-16T07:49:07.405Z,87.37
2022-12-16T07:51:52.677Z,87.32
2022-12-16T07:54:37.899Z,87.27
2022-12-16T07:57:23.644Z,87.45
2022-12-16T08:00:08.812Z,87.45
2022-12-16T08:03:13.728Z,87.59
2022-12-16T08:05:59.238Z,87.43
2022-12-16T08:08:44.553Z,87.54
2022-12-16T08:11:30.261Z,87.61
2022-12-16T08:14:15.533Z,87.43
2022-12-16T08:17:00.826Z,87.44
2022-12-16T08:19:46.071Z,87.70
2022-12-16T08:22:31.300Z,87.88
2022-12-16T08:25:16.506Z,88.23
2022-12-16T08:28:02.878Z,88.28
2022-12-16T08:30:48.172Z,88.18
2022-12-16T08:33:33.912Z,88.35
2022-12-16T08:36:19.442Z,88.37
2022-12-16T08:39:04.671Z,88.55
2022-12-16T08:41:50.479Z,88.57
2022-12-16T08:44:36.259Z,88.79
2022-12-16T08:47:22.069Z,88.88
2022-12-16T08:50:07.942Z,89.09
2022-12-16T08:52:53.193Z,89.08
2022-12-16T08:55:39.073Z,89.31
2022-12-16T08:58:24.347Z,89.55
2022-12-16T09:01:09.654Z,89.61
2022-12-16T09:03:56.086Z,89.82
2022-12-16T09:07:02.033Z,89.86
2022-12-16T09:09:47.727Z,90.11
2022-12-16T09:12:33.103Z,90.03
2022-12-16T09:15:18.262Z,90.17
2022-12-16T09:18:03.641Z,90.26
2022-12-16T09:20:48.924Z,90.47
2022-12-16T09:23:34.721Z,90.35
2022-12-16T09:26:20.566Z,90.56
2022-12-16T09:29:05.811Z,90.53
2022-12-16T09:31:50.954Z,90.58
2022-12-16T09:34:36.175Z,90.35
2022-12-16T09:37:22.099Z,90.67
2022-12-16T09:40:07.557Z,90.65
2022-12-16T09:43:29.304Z,90.56
2022-12-16T09:46:36.163Z,90.71
2022-12-16T09:49:54.324Z,90.78
2022-12-16T09:52:41.409Z,90.72
2022-12-16T09:55:47.481Z,90.96
2022-12-16T09:58:35.860Z,90.99
2022-12-16T10:01:21.255Z,91.11
2022-12-16T10:04:07.317Z,91.25
2022-12-16T10:07:06.382Z,91.31
2022-12-16T10:10:22.257Z,91.54
2022-12-16T10:13:40.749Z,91.77
2022-12-16T10:16:47.206Z,91.79
2022-12-16T10:19:32.499Z,91.51
2022-12-16T10:22:48.960Z,91.72
2022-12-16T10:26:00.973Z,91.85
2022-12-16T10:29:16.916Z,92.09
2022-12-16T10:32:02.807Z,91.91
2022-12-16T10:34:52.908Z,92.02
2022-12-16T10:37:53.949Z,92.15
2022-12-16T10:40:44.828Z,91.93
2022-12-16T10:43:48.487Z,92.14
2022-12-16T10:46:42.319Z,92.16
2022-12-16T10:49:34.477Z,92.13
2022-12-16T10:52:20.563Z,92.30
2022-12-16T10:55:53.574Z,92.79
2022-12-16T10:59:22.852Z,93.11
2022-12-16T11:02:39.051Z,93.08
2022-12-16T11:05:51.665Z,93.30
2022-12-16T11:08:55.659Z,93.29
2022-12-16T11:11:47.759Z,93.17
2022-12-16T11:15:05.810Z,93.50
2022-12-16T11:17:53.064Z,93.62
2022-12-16T11:20:42.445Z,93.69
2022-12-16T11:23:43.856Z,93.98
2022-12-16T11:26:37.936Z,94.54
2022-12-16T11:29:36.083Z,94.16
2022-12-16T11:32:44.447Z,94.38
2022-12-16T11:35:38.447Z,94.18
2022-12-16T11:38:33.914Z,94.08
2022-12-16T11:41:19.879Z,94.16
2022-12-16T11:44:10.367Z,93.77
2022-12-16T11:46:56.055Z,93.83
2022-12-16T11:49:50.916Z,93.76
2022-12-16T11:52:40.003Z,93.84
2022-12-16T11:58:54.169Z,94.10
2022-12-16T12:02:07.124Z,94.41
2022-12-16T12:04:52.691Z,94.30
2022-12-16T12:08:12.497Z,94.26
2022-12-16T12:11:22.187Z,94.47
2022-12-16T12:15:05.126Z,94.46
2022-12-16T12:18:10.676Z,94.41
2022-12-16T12:21:16.757Z,94.33
2022-12-16T12:24:26.800Z,94.51
2022-12-16T12:27:31.089Z,94.27
2022-12-16T12:30:31.445Z,94.39
2022-12-16T12:33:29.059Z,94.38
2022-12-16T12:36:48.893Z,94.48
2022-12-16T12:40:02.000Z,94.36
2022-12-16T12:42:56.375Z,94.51
2022-12-16T12:46:14.581Z,94.57
2022-12-16T12:49:39.996Z,94.37
2022-12-16T12:53:02.693Z,94.43
2022-12-16T12:56:20.426Z,94.71
2022-12-16T12:59:08.908Z,94.21
2022-12-16T13:01:59.223Z,94.30
2022-12-16T13:04:47.436Z,94.30
2022-12-16T13:07:33.221Z,94.32
2022-12-16T13:10:43.663Z,94.67
2022-12-16T13:13:51.374Z,94.61
2022-12-16T13:17:20.313Z,94.22
2022-12-16T13:20:14.081Z,94.15
2022-12-16T13:23:01.613Z,94.17
2022-12-16T13:26:08.977Z,94.71
2022-12-16T13:29:00.787Z,94.21
2022-12-16T13:31:48.700Z,94.12
2022-12-16T13:34:34.416Z,93.97
2022-12-16T13:37:28.430Z,93.97
2022-12-16T13:40:25.867Z,94.02
2022-12-16T13:43:13.769Z,93.84
2022-12-16T13:46:16.009Z,94.18
2022-12-16T13:49:02.021Z,94.00
2022-12-16T13:51:56.349Z,94.05
2022-12-16T13:55:08.137Z,94.09
2022-12-16T13:58:00.866Z,94.02
2022-12-16T14:00:47.765Z,93.96
2022-12-16T14:03:59.657Z,94.25
2022-12-16T14:06:48.606Z,93.84
2022-12-16T14:09:56.362Z,94.02
2022-12-16T14:13:25.710Z,93.98
2022-12-16T14:16:40.409Z,93.87
2022-12-16T14:19:59.576Z,93.70
2022-12-16T14:23:47.319Z,93.87
2022-12-16T14:26:33.768Z,93.76
2022-12-16T14:29:21.984Z,93.41
2022-12-16T14:32:07.337Z,93.29
2022-12-16T14:34:55.398Z,93.37
2022-12-16T14:37:56.099Z,93.31
2022-12-16T14:40:49.748Z,93.26
2022-12-16T14:43:44.105Z,93.50
2022-12-16T14:46:49.117Z,93.50
2022-12-16T14:49:48.853Z,93.46
2022-12-16T14:52:42.075Z,93.33
2022-12-16T14:55:37.827Z,93.34
2022-12-16T14:58:31.678Z,93.16
2022-12-16T15:01:30.244Z,93.15
2022-12-16T15:04:16.541Z,93.07
2022-12-16T15:07:10.204Z,93.02
2022-12-16T15:10:08.357Z,92.98
2022-12-16T15:13:03.013Z,92.80
2022-12-16T15:16:09.231Z,92.91
2022-12-16T15:19:03.332Z,92.85
2022-12-16T15:21:53.105Z,93.00
2022-12-16T15:24:43.179Z,92.90
2022-12-16T15:27:39.127Z,92.89
2022-12-16T15:31:07.533Z,92.63
2022-12-16T15:33:56.912Z,92.54
2022-12-16T15:36:55.100Z,92.81
2022-12-16T15:39:43.332Z,92.75
2022-12-16T15:42:49.361Z,92.67
2022-12-16T15:45:49.540Z,92.44
2022-12-16T15:48:49.406Z,92.47
2022-12-16T15:52:09.012Z,92.48
2022-12-16T15:55:12.631Z,92.53
2022-12-16T15:57:58.603Z,92.14
2022-12-16T16:00:49.189Z,92.13
2022-12-16T16:03:43.768Z,92.13
2022-12-16T16:06:45.926Z,92.26
2022-12-16T16:09:47.967Z,92.20
2022-12-16T16:12:38.037Z,92.11
2022-12-16T16:15:26.862Z,92.07
2022-12-16T16:18:23.501Z,91.84
2022-12-16T16:21:10.788Z,91.78
2022-12-16T16:23:56.959Z,92.11
2022-12-16T16:26:47.562Z,91.98
2022-12-16T16:29:33.940Z,91.83
2022-12-16T16:32:21.101Z,91.71
2022-12-16T16:35:07.321Z,91.68
2022-12-16T16:37:53.394Z,91.72
2022-12-16T16:40:59.479Z,91.54
2022-12-16T16:43:46.805Z,91.64
2022-12-16T16:46:39.285Z,91.56
2022-12-16T16:49:38.135Z,91.49
2022-12-16T16:52:30.935Z,91.50
2022-12-16T16:55:17.640Z,91.46
2022-12-16T16:58:04.558Z,91.29
2022-12-16T17:00:50.950Z,91.35
2022-12-16T17:03:38.389Z,91.30
2022-12-16T17:06:25.095Z,91.33
2022-12-16T17:09:10.570Z,91.32
2022-12-16T17:11:57.063Z,91.16
2022-12-16T17:14:42.413Z,91.14
2022-12-16T17:17:28.690Z,91.09
2022-12-16T17:20:14.461Z,91.10
2022-12-16T17:23:00.500Z,91.00
2022-12-16T17:25:46.352Z,91.03
2022-12-16T17:28:31.685Z,90.77
2022-12-16T17:31:17.601Z,90.79
2022-12-16T17:34:03.501Z,91.05
2022-12-16T17:36:49.218Z,90.83
2022-12-16T17:39:34.515Z,90.59
2022-12-16T17:42:19.918Z,90.65
2022-12-16T17:45:05.872Z,90.64
2022-12-16T17:47:51.186Z,90.59
2022-12-16T17:50:36.407Z,90.59
2022-12-16T17:53:21.785Z,90.43
2022-12-16T17:56:07.035Z,90.58
2022-12-16T17:58:56.003Z,90.42
2022-12-16T18:01:42.785Z,90.42
2022-12-16T18:04:28.701Z,90.59
2022-12-16T18:07:14.655Z,90.28
2022-12-16T18:10:00.403Z,90.42
2022-12-16T18:12:46.311Z,90.59
2022-12-16T18:15:31.734Z,90.32
2022-12-16T18:18:17.008Z,90.19
2022-12-16T18:21:02.346Z,90.21
2022-12-16T18:23:49.314Z,90.14
2022-12-16T18:26:35.592Z,90.24
2022-12-16T18:29:21.654Z,90.38
2022-12-16T18:32:08.127Z,90.46
2022-12-16T18:34:53.783Z,89.98
2022-12-16T18:37:39.690Z,90.01
2022-12-16T18:40:26.193Z,90.13
2022-12-16T18:43:11.404Z,89.92
2022-12-16T18:45:56.770Z,89.83
2022-12-16T18:48:42.228Z,89.83
2022-12-16T18:51:27.466Z,89.73
2022-12-16T18:54:13.300Z,89.58
2022-12-16T18:56:58.693Z,89.54
2022-12-16T18:59:44.069Z,89.57
2022-12-16T19:02:29.480Z,89.44
2022-12-16T19:05:14.900Z,89.31
2022-12-16T19:08:00.035Z,89.40
2022-12-16T19:10:45.360Z,89.38
2022-12-16T19:13:34.889Z,89.29
2022-12-16T19:16:20.782Z,89.15
2022-12-16T19:19:06.583Z,89.15
2022-12-16T19:21:56.534Z,88.99
2022-12-16T19:24:43.649Z,89.19
2022-12-16T19:27:28.904Z,88.95
2022-12-16T19:30:14.256Z,88.92
2022-12-16T19:32:59.419Z,88.95
2022-12-16T19:35:44.873Z,88.96
2022-12-16T19:38:32.858Z,88.84
2022-12-16T19:41:18.713Z,88.79
2022-12-16T19:44:06.533Z,88.73
2022-12-16T19:49:58.095Z,88.68
2022-12-16T19:52:43.310Z,88.59
2022-12-16T19:55:29.267Z,88.70
2022-12-16T19:58:14.604Z,88.51
2022-12-16T20:01:00.454Z,88.51
2022-12-16T20:03:47.017Z,88.40
2022-12-16T20:06:33.141Z,88.50
2022-12-16T20:09:18.891Z,88.37
2022-12-16T20:12:04.182Z,88.46
2022-12-16T20:14:51.626Z,88.47
2022-12-16T20:17:37.071Z,88.54
2022-12-16T20:20:22.896Z,88.59
2022-12-16T20:23:08.120Z,88.27
2022-12-16T20:25:56.409Z,88.22
2022-12-16T20:28:43.844Z,88.37
2022-12-16T20:31:29.194Z,88.39
2022-12-16T20:34:15.691Z,88.41
2022-12-16T20:37:01.435Z,88.20
2022-12-16T20:39:56.566Z,88.22
2022-12-16T20:42:44.086Z,88.02
2022-12-16T20:45:30.415Z,88.12
2022-12-16T20:48:15.855Z,87.92
2022-12-16T20:51:01.259Z,87.92
2022-12-16T20:53:47.300Z,87.97
2022-12-16T20:56:32.634Z,88.17
2022-12-16T20:59:17.990Z,88.22
2022-12-16T21:02:25.863Z,88.17
2022-12-16T21:05:11.627Z,88.83
2022-12-16T21:07:57.005Z,88.56
2022-12-16T21:10:42.993Z,88.29
2022-12-16T21:13:34.679Z,88.32
2022-12-16T21:14:28.424Z,88.53
2022-12-16T21:16:24.104Z,88.30
2022-12-16T21:19:10.412Z,88.18
2022-12-16T21:25:01.885Z,87.97
2022-12-16T21:27:47.204Z,87.95
2022-12-16T21:30:43.202Z,88.05
2022-12-16T21:33:36.973Z,87.80
2022-12-16T21:36:23.291Z,87.85
2022-12-16T21:39:08.707Z,87.85
2022-12-16T21:41:54.530Z,88.09
2022-12-16T21:44:42.024Z,87.92
2022-12-16T21:47:27.898Z,87.68
2022-12-16T21:50:13.109Z,88.02
2022-12-16T21:53:02.296Z,87.92
2022-12-16T21:55:47.832Z,88.02
2022-12-16T21:58:32.900Z,87.90
2022-12-16T22:01:18.111Z,87.87
2022-12-16T22:04:03.428Z,88.13
2022-12-16T22:06:49.229Z,88.15
2022-12-16T22:09:35.717Z,88.20
2022-12-16T22:12:21.462Z,88.24
2022-12-16T22:15:06.810Z,88.14
2022-12-16T22:17:58.080Z,88.23
2022-12-16T22:20:44.609Z,88.18
2022-12-16T22:23:29.929Z,88.02
2022-12-16T22:26:17.298Z,88.13
2022-12-16T22:29:02.455Z,88.30
2022-12-16T22:31:47.693Z,88.24
2022-12-16T22:34:33.630Z,88.07
2022-12-16T22:37:18.868Z,88.18
2022-12-16T22:40:04.730Z,88.17
2022-12-16T22:42:50.580Z,88.03
2022-12-16T22:45:36.090Z,87.91
2022-12-16T22:48:21.838Z,87.96
2022-12-16T22:51:07.177Z,88.02
2022-12-16T22:53:52.428Z,87.89
2022-12-16T22:56:38.788Z,88.03
2022-12-16T22:59:24.596Z,88.07
2022-12-16T23:02:09.980Z,88.03
2022-12-16T23:04:55.389Z,88.36
2022-12-16T23:07:43.338Z,88.09
2022-12-16T23:10:28.666Z,88.01
2022-12-16T23:13:13.924Z,88.00
2022-12-16T23:15:59.361Z,87.86
2022-12-16T23:18:44.647Z,87.97
2022-12-16T23:21:36.048Z,87.89
2022-12-16T23:24:21.943Z,87.83
2022-12-16T23:27:07.432Z,87.73
2022-12-16T23:29:52.833Z,87.84
2022-12-16T23:32:31.348Z,88.20
2022-12-16T23:32:43.566Z,87.91
2022-12-16T23:35:29.407Z,87.81
2022-12-16T23:38:23.937Z,87.87
2022-12-16T23:41:17.578Z,87.72
2022-12-16T23:44:03.863Z,87.67
2022-12-16T23:46:49.743Z,87.60
2022-12-16T23:49:35.091Z,87.48
2022-12-16T23:52:20.318Z,87.51
2022-12-16T23:55:05.587Z,87.58
2022-12-16T23:57:50.894Z,87.69
